createdAt,value
2022-11-18T07:36:57.311Z,9.67
2022-11-18T07:37:57.279Z,9.67
2022-11-18T07:38:57.263Z,9.76
2022-11-18T07:39:57.260Z,9.68
2022-11-18T07:40:57.234Z,9.71
2022-11-18T07:41:57.234Z,9.79
2022-11-18T07:42:57.233Z,9.79
2022-11-18T07:44:00.484Z,9.78
2022-11-18T07:44:57.183Z,9.79
2022-11-18T07:45:57.176Z,9.78
2022-11-18T07:46:57.164Z,9.82
2022-11-18T07:47:57.168Z,9.88
2022-11-18T07:48:57.148Z,9.91
2022-11-18T07:49:57.135Z,9.94
2022-11-18T07:50:57.118Z,10.01
2022-11-18T07:51:57.116Z,9.94
2022-11-18T07:52:57.140Z,9.97
2022-11-18T07:53:57.089Z,9.96
2022-11-18T07:54:57.070Z,10.15
2022-11-18T07:55:57.062Z,9.97
2022-11-18T07:56:57.058Z,10.01
2022-11-18T07:57:57.062Z,9.91
2022-11-18T07:58:57.032Z,9.83
2022-11-18T07:59:57.016Z,9.93
2022-11-18T08:00:57.035Z,9.96
2022-11-18T08:01:57.028Z,9.91
2022-11-18T08:02:57.002Z,10.01
2022-11-18T08:03:56.965Z,9.94
2022-11-18T08:04:57.014Z,9.94
2022-11-18T08:05:56.953Z,9.96
2022-11-18T08:06:57.026Z,10.04
2022-11-18T08:07:56.939Z,9.91
2022-11-18T08:08:56.946Z,10.03
2022-11-18T08:09:56.904Z,9.96
2022-11-18T08:10:56.886Z,9.89
2022-11-18T08:11:56.875Z,10.00
2022-11-18T08:12:56.888Z,9.93
2022-11-18T08:13:56.856Z,10.01
2022-11-18T08:14:56.840Z,10.04
2022-11-18T08:15:56.834Z,9.99
2022-11-18T08:16:56.821Z,10.01
2022-11-18T08:17:56.829Z,10.07
2022-11-18T08:18:56.809Z,10.17
2022-11-18T08:19:56.782Z,10.14
2022-11-18T08:20:56.783Z,10.22
2022-11-18T08:21:56.790Z,10.24
2022-11-18T08:22:56.772Z,10.33
2022-11-18T08:23:56.747Z,10.32
2022-11-18T08:24:56.744Z,10.36
2022-11-18T08:25:56.721Z,10.26
2022-11-18T08:26:56.706Z,10.51
2022-11-18T08:27:56.735Z,10.52
2022-11-18T08:28:56.792Z,10.40
2022-11-18T08:29:56.671Z,10.52
2022-11-18T08:30:56.668Z,10.52
2022-11-18T08:31:56.672Z,10.53
2022-11-18T08:32:56.668Z,10.44
2022-11-18T08:33:56.633Z,10.46
2022-11-18T08:34:56.621Z,10.62
2022-11-18T08:35:56.608Z,10.55
2022-11-18T08:36:56.591Z,10.78
2022-11-18T08:37:56.584Z,10.76
2022-11-18T08:38:56.592Z,10.83
2022-11-18T08:39:56.557Z,10.76
2022-11-18T08:40:56.671Z,10.88
2022-11-18T08:41:56.525Z,10.86
2022-11-18T08:42:56.521Z,10.94
2022-11-18T08:43:56.552Z,10.96
2022-11-18T08:44:56.507Z,10.91
2022-11-18T08:45:56.485Z,10.96
2022-11-18T08:46:56.493Z,10.99
2022-11-18T08:47:56.470Z,11.01
2022-11-18T08:48:56.480Z,11.03
2022-11-18T08:49:56.441Z,11.02
2022-11-18T08:50:56.437Z,11.07
2022-11-18T08:51:56.421Z,11.02
2022-11-18T08:52:56.411Z,11.07
2022-11-18T08:53:56.418Z,11.06
2022-11-18T08:54:56.386Z,11.02
2022-11-18T08:55:57.349Z,11.10
2022-11-18T08:56:56.459Z,11.13
2022-11-18T08:57:56.345Z,11.11
2022-11-18T08:58:56.375Z,11.13
2022-11-18T08:59:56.332Z,11.09
2022-11-18T09:00:56.342Z,11.07
2022-11-18T09:01:56.389Z,11.03
2022-11-18T09:02:56.309Z,11.09
2022-11-18T09:03:56.309Z,11.07
2022-11-18T09:04:56.266Z,11.10
2022-11-18T09:05:56.255Z,11.11
2022-11-18T09:06:56.328Z,11.11
2022-11-18T09:07:56.244Z,11.16
2022-11-18T09:08:56.243Z,11.19
2022-11-18T09:09:56.209Z,11.07
2022-11-18T09:10:56.227Z,11.11
2022-11-18T09:11:56.194Z,11.14
2022-11-18T09:13:07.059Z,11.16
2022-11-18T09:15:14.162Z,11.13
2022-11-18T09:15:57.142Z,11.20
2022-11-18T09:16:56.147Z,11.24
2022-11-18T09:17:56.123Z,11.19
2022-11-18T09:18:56.148Z,11.10
2022-11-18T09:19:56.111Z,11.11
2022-11-18T09:20:56.088Z,11.20
2022-11-18T09:21:56.078Z,11.16
2022-11-18T09:22:56.068Z,11.16
2022-11-18T09:23:56.072Z,11.25
2022-11-18T09:24:56.051Z,11.36
2022-11-18T09:25:56.053Z,11.39
2022-11-18T09:26:56.026Z,11.35
2022-11-18T09:27:56.033Z,11.36
2022-11-18T09:28:56.083Z,11.31
2022-11-18T09:29:55.995Z,11.44
2022-11-18T09:30:55.984Z,11.39
2022-11-18T09:31:55.968Z,11.39
2022-11-18T09:32:55.950Z,11.57
2022-11-18T09:33:55.956Z,11.54
2022-11-18T09:34:55.951Z,11.46
2022-11-18T09:35:55.923Z,11.59
2022-11-18T09:36:56.059Z,11.71
2022-11-18T09:37:55.894Z,11.67
2022-11-18T09:38:55.899Z,11.71
2022-11-18T09:39:55.872Z,11.70
2022-11-18T09:40:55.858Z,11.71
2022-11-18T09:41:55.854Z,11.85
2022-11-18T09:42:55.839Z,11.72
2022-11-18T09:43:55.846Z,11.96
2022-11-18T09:44:55.970Z,11.80
2022-11-18T09:45:55.812Z,11.96
2022-11-18T09:46:55.791Z,11.99
2022-11-18T09:47:55.781Z,12.16
2022-11-18T09:48:55.792Z,12.13
2022-11-18T09:49:55.768Z,12.13
2022-11-18T09:50:55.760Z,12.26
2022-11-18T09:51:55.740Z,12.23
2022-11-18T09:52:55.740Z,12.34
2022-11-18T09:53:55.792Z,12.38
2022-11-18T09:54:55.712Z,12.41
2022-11-18T09:55:55.689Z,12.44
2022-11-18T09:56:55.795Z,12.52
2022-11-18T09:57:55.665Z,12.60
2022-11-18T09:58:55.679Z,12.59
2022-11-18T09:59:55.640Z,12.63
2022-11-18T10:00:55.767Z,12.74
2022-11-18T10:01:55.697Z,12.92
2022-11-18T10:02:55.613Z,12.97
2022-11-18T10:03:55.607Z,13.11
2022-11-18T10:04:55.583Z,13.12
2022-11-18T10:05:55.584Z,13.27
2022-11-18T10:06:55.593Z,13.43
2022-11-18T10:07:55.565Z,13.58
2022-11-18T10:08:55.573Z,13.70
2022-11-18T10:09:55.544Z,13.67
2022-11-18T10:10:55.532Z,13.83
2022-11-18T10:11:55.522Z,13.81
2022-11-18T10:12:55.493Z,13.83
2022-11-18T10:13:55.506Z,13.98
2022-11-18T10:14:55.501Z,14.02
2022-11-18T10:15:55.466Z,14.17
2022-11-18T10:16:58.134Z,14.29
2022-11-18T10:17:55.439Z,14.44
2022-11-18T10:19:02.575Z,14.57
2022-11-18T10:19:56.431Z,14.68
2022-11-18T10:20:55.405Z,14.78
2022-11-18T10:21:55.395Z,14.91
2022-11-18T10:22:55.389Z,15.03
2022-11-18T10:23:55.396Z,15.19
2022-11-18T10:24:55.356Z,15.28
2022-11-18T10:25:55.355Z,15.41
2022-11-18T10:26:55.339Z,15.43
2022-11-18T10:27:55.351Z,15.36
2022-11-18T10:28:55.330Z,15.42
2022-11-18T10:29:55.312Z,15.21
2022-11-18T10:30:55.314Z,15.27
2022-11-18T10:31:59.523Z,15.11
2022-11-18T10:32:56.360Z,15.13
2022-11-18T10:33:55.283Z,15.09
2022-11-18T10:34:55.251Z,15.05
2022-11-18T10:35:55.263Z,14.83
2022-11-18T10:36:55.225Z,14.62
2022-11-18T10:38:07.522Z,14.60
2022-11-18T10:38:56.213Z,14.72
2022-11-18T10:39:55.202Z,14.68
2022-11-18T10:40:55.178Z,14.64
2022-11-18T10:41:55.179Z,14.62
2022-11-18T10:42:55.173Z,14.68
2022-11-18T10:43:55.176Z,14.75
2022-11-18T10:44:55.133Z,14.87
2022-11-18T10:45:55.139Z,15.02
2022-11-18T10:46:55.119Z,15.12
2022-11-18T10:47:55.104Z,14.93
2022-11-18T10:48:55.122Z,15.08
2022-11-18T10:49:55.086Z,15.17
2022-11-18T10:50:56.178Z,15.28
2022-11-18T10:51:55.068Z,15.43
2022-11-18T10:52:55.045Z,15.51
2022-11-18T10:53:55.044Z,15.63
2022-11-18T10:54:55.023Z,15.74
2022-11-18T10:55:55.022Z,15.81
2022-11-18T10:57:55.987Z,16.34
2022-11-18T10:58:54.995Z,16.27
2022-11-18T10:59:54.975Z,16.34
2022-11-18T11:00:54.960Z,16.25
2022-11-18T11:01:48.029Z,16.00
2022-11-18T11:01:54.995Z,16.25
2022-11-18T11:02:54.932Z,16.30
2022-11-18T11:03:54.945Z,16.35
2022-11-18T11:04:54.929Z,16.37
2022-11-18T11:05:54.908Z,16.37
2022-11-18T11:06:54.944Z,16.44
2022-11-18T11:08:14.334Z,16.53
2022-11-18T11:08:55.881Z,16.67
2022-11-18T11:09:54.848Z,16.56
2022-11-18T11:10:54.851Z,16.71
2022-11-18T11:11:54.831Z,16.75
2022-11-18T11:12:54.837Z,16.67
2022-11-18T11:13:54.834Z,16.65
2022-11-18T11:14:54.821Z,16.67
2022-11-18T11:15:54.781Z,16.53
2022-11-18T11:16:54.779Z,16.35
2022-11-18T11:17:54.828Z,16.26
2022-11-18T11:18:54.771Z,16.18
2022-11-18T11:19:54.793Z,16.06
2022-11-18T11:20:54.855Z,16.01
2022-11-18T11:21:54.730Z,16.11
2022-11-18T11:22:54.699Z,15.94
2022-11-18T11:23:54.718Z,15.88
2022-11-18T11:24:54.680Z,15.74
2022-11-18T11:28:55.661Z,15.35
2022-11-18T11:29:54.709Z,15.35
2022-11-18T11:30:54.745Z,15.15
2022-11-18T11:31:54.597Z,15.05
2022-11-18T11:32:55.470Z,14.95
2022-11-18T11:33:54.592Z,14.84
2022-11-18T11:34:54.583Z,14.75
2022-11-18T11:35:54.551Z,14.64
2022-11-18T11:36:54.660Z,14.61
2022-11-18T11:37:54.550Z,14.49
2022-11-18T11:38:55.752Z,14.39
2022-11-18T11:39:54.589Z,14.35
2022-11-18T11:40:54.521Z,14.24
2022-11-18T11:41:54.502Z,14.24
2022-11-18T11:42:54.466Z,14.19
2022-11-18T11:43:54.460Z,14.28
2022-11-18T11:44:54.480Z,14.28
2022-11-18T11:45:54.451Z,14.27
2022-11-18T11:46:54.421Z,14.21
2022-11-18T11:47:54.423Z,14.38
2022-11-18T11:48:54.404Z,14.34
2022-11-18T11:49:54.471Z,14.34
2022-11-18T11:51:03.045Z,14.31
2022-11-18T11:51:55.382Z,14.28
2022-11-18T11:52:54.395Z,14.28
2022-11-18T11:53:54.362Z,14.24
2022-11-18T11:54:54.343Z,14.17
2022-11-18T11:55:54.367Z,14.27
2022-11-18T11:56:54.313Z,14.24
2022-11-18T11:57:54.326Z,14.25
2022-11-18T11:58:54.300Z,14.24
2022-11-18T11:59:54.364Z,14.28
2022-11-18T12:00:54.293Z,14.34
2022-11-18T12:01:54.268Z,14.27
2022-11-18T12:02:54.365Z,14.31
2022-11-18T12:03:54.232Z,14.29
2022-11-18T12:04:54.247Z,14.43
2022-11-18T12:05:54.227Z,14.43
2022-11-18T12:06:54.276Z,14.43
2022-11-18T12:07:54.212Z,14.49
2022-11-18T12:08:54.189Z,14.47
2022-11-18T12:09:54.214Z,14.47
2022-11-18T12:10:54.177Z,14.61
2022-11-18T12:11:54.153Z,14.61
2022-11-18T12:12:54.154Z,14.72
2022-11-18T12:13:54.121Z,14.90
2022-11-18T12:14:54.101Z,15.06
2022-11-18T12:15:54.125Z,15.28
2022-11-18T12:16:54.121Z,15.60
2022-11-18T12:17:54.088Z,15.89
2022-11-18T12:18:54.083Z,16.16
2022-11-18T12:19:54.066Z,16.53
2022-11-18T12:20:54.038Z,16.74
2022-11-18T12:21:54.041Z,16.93
2022-11-18T12:22:54.013Z,17.20
2022-11-18T12:23:54.005Z,17.33
2022-11-18T12:24:54.032Z,17.43
2022-11-18T12:25:54.004Z,17.41
2022-11-18T12:26:53.984Z,17.41
2022-11-18T12:27:58.707Z,17.30
2022-11-18T12:28:53.964Z,17.20
2022-11-18T12:29:54.024Z,17.22
2022-11-18T12:30:53.941Z,17.20
2022-11-18T12:31:53.936Z,17.15
2022-11-18T12:32:53.919Z,17.11
2022-11-18T12:33:53.903Z,17.17
2022-11-18T12:34:53.928Z,17.14
2022-11-18T12:35:53.887Z,17.07
2022-11-18T12:36:53.878Z,16.92
2022-11-18T12:37:53.857Z,16.83
2022-11-18T12:38:53.826Z,16.78
2022-11-18T12:39:53.970Z,16.88
2022-11-18T12:40:53.827Z,16.75
2022-11-18T12:41:53.812Z,16.65
2022-11-18T12:42:53.793Z,16.48
2022-11-18T12:43:53.773Z,16.48
2022-11-18T12:44:53.762Z,16.44
2022-11-18T12:45:53.761Z,16.30
2022-11-18T12:46:53.736Z,16.15
2022-11-18T12:47:53.756Z,16.14
2022-11-18T12:48:53.725Z,16.03
2022-11-18T12:49:53.779Z,16.00
2022-11-18T12:50:53.698Z,15.97
2022-11-18T12:51:53.694Z,15.82
2022-11-18T12:52:53.711Z,15.74
2022-11-18T12:53:53.671Z,15.76
2022-11-18T12:54:53.657Z,15.72
2022-11-18T12:55:53.652Z,15.78
2022-11-18T12:56:53.651Z,15.82
2022-11-18T12:57:53.633Z,15.79
2022-11-18T12:58:53.618Z,15.78
2022-11-18T12:59:53.615Z,15.82
2022-11-18T13:00:53.609Z,15.67
2022-11-18T13:01:53.577Z,15.72
2022-11-18T13:02:53.593Z,15.72
2022-11-18T13:03:53.569Z,15.68
2022-11-18T13:04:53.552Z,15.66
2022-11-18T13:05:53.555Z,15.60
2022-11-18T13:06:53.541Z,15.51
2022-11-18T13:07:53.514Z,15.51
2022-11-18T13:08:53.537Z,15.45
2022-11-18T13:09:53.485Z,15.51
2022-11-18T13:10:56.026Z,15.35
2022-11-18T13:11:53.586Z,15.24
2022-11-18T13:12:53.469Z,15.17
2022-11-18T13:13:53.472Z,15.15
2022-11-18T13:14:53.424Z,15.09
2022-11-18T13:15:53.430Z,15.02
2022-11-18T13:16:53.420Z,14.98
2022-11-18T13:17:53.394Z,15.02
2022-11-18T13:18:53.399Z,14.94
2022-11-18T13:19:53.392Z,14.94
2022-11-18T13:20:53.375Z,14.80
2022-11-18T13:21:53.355Z,14.80
2022-11-18T13:22:53.373Z,14.71
2022-11-18T13:23:59.339Z,14.69
2022-11-18T13:24:54.322Z,14.67
2022-11-18T13:25:53.322Z,14.62
2022-11-18T13:26:53.301Z,14.62
2022-11-18T13:27:53.293Z,14.60
2022-11-18T13:28:53.283Z,14.50
2022-11-18T13:29:54.252Z,14.61
2022-11-18T13:30:53.255Z,14.34
2022-11-18T13:31:53.249Z,14.44
2022-11-18T13:32:53.230Z,14.34
2022-11-18T13:33:53.227Z,14.35
2022-11-18T13:34:53.233Z,14.27
2022-11-18T13:35:53.199Z,14.25
2022-11-18T13:36:53.188Z,14.31
2022-11-18T13:37:53.167Z,14.21
2022-11-18T13:38:53.167Z,14.13
2022-11-18T13:39:53.174Z,14.10
2022-11-18T13:40:53.149Z,14.04
2022-11-18T13:41:53.138Z,14.14
2022-11-18T13:42:53.109Z,13.99
2022-11-18T13:43:54.245Z,14.01
2022-11-18T13:44:53.125Z,14.02
2022-11-18T13:45:53.092Z,13.99
2022-11-18T13:46:53.087Z,13.98
2022-11-18T13:47:53.062Z,13.95
2022-11-18T13:48:53.064Z,13.99
2022-11-18T13:49:53.057Z,13.99
2022-11-18T13:50:53.054Z,13.98
2022-11-18T13:51:53.021Z,13.96
2022-11-18T13:52:52.992Z,13.99
2022-11-18T13:53:53.003Z,13.95
2022-11-18T13:54:52.990Z,14.04
2022-11-18T13:55:52.980Z,14.04
2022-11-18T13:56:52.952Z,13.99
2022-11-18T13:57:52.954Z,14.02
2022-11-18T13:59:16.266Z,14.14
2022-11-18T13:59:53.954Z,13.99
2022-11-18T14:00:52.953Z,14.09
2022-11-18T14:01:52.917Z,14.04
2022-11-18T14:02:52.882Z,13.95
2022-11-18T14:03:52.889Z,13.98
2022-11-18T14:04:52.982Z,14.04
2022-11-18T14:05:52.880Z,13.94
2022-11-18T14:06:52.953Z,13.84
2022-11-18T14:07:52.860Z,13.88
2022-11-18T14:08:52.812Z,13.73
2022-11-18T14:09:52.818Z,13.77
2022-11-18T14:10:52.804Z,13.76
2022-11-18T14:11:52.792Z,13.69
2022-11-18T14:12:52.779Z,13.61
2022-11-18T14:13:52.771Z,13.59
2022-11-18T14:14:52.748Z,13.55
2022-11-18T14:15:52.782Z,13.58
2022-11-18T14:16:52.739Z,13.47
2022-11-18T14:17:52.751Z,13.52
2022-11-18T14:18:52.752Z,13.49
2022-11-18T14:19:52.687Z,13.41
2022-11-18T14:20:52.690Z,13.51
2022-11-18T14:21:52.678Z,13.32
2022-11-18T14:22:52.667Z,13.33
2022-11-18T14:23:52.643Z,13.33
2022-11-18T14:24:52.709Z,13.32
2022-11-18T14:25:52.647Z,13.24
2022-11-18T14:26:52.612Z,13.29
2022-11-18T14:27:52.592Z,13.18
2022-11-18T14:28:52.601Z,13.24
2022-11-18T14:29:52.573Z,13.20
2022-11-18T14:30:52.594Z,13.15
2022-11-18T14:31:52.548Z,13.12
2022-11-18T14:32:52.583Z,13.09
2022-11-18T14:33:52.541Z,13.18
2022-11-18T14:34:52.537Z,13.06
2022-11-18T14:35:52.543Z,13.15
2022-11-18T14:36:52.517Z,13.03
2022-11-18T14:38:00.113Z,13.03
2022-11-18T14:39:53.481Z,13.03
2022-11-18T14:40:52.491Z,13.00
2022-11-18T14:41:52.449Z,13.00
2022-11-18T14:42:52.444Z,12.85
2022-11-18T14:43:52.436Z,12.88
2022-11-18T14:44:52.419Z,12.87
2022-11-18T14:45:52.406Z,12.85
2022-11-18T14:46:52.429Z,12.82
2022-11-18T14:47:52.384Z,12.71
2022-11-18T14:48:52.438Z,12.88
2022-11-18T14:49:52.343Z,12.69
2022-11-18T14:50:52.334Z,12.66
2022-11-18T14:51:52.336Z,12.79
2022-11-18T14:52:52.316Z,12.75
2022-11-18T14:53:52.316Z,12.78
2022-11-18T14:54:52.307Z,12.75
2022-11-18T14:55:52.280Z,12.71
2022-11-18T14:56:52.314Z,12.64
2022-11-18T14:57:52.270Z,12.49
2022-11-18T14:58:52.265Z,12.54
2022-11-18T14:59:52.246Z,12.52
2022-11-18T15:00:52.319Z,12.49
2022-11-18T15:01:52.401Z,12.54
2022-11-18T15:02:52.281Z,12.45
2022-11-18T15:03:52.202Z,12.45
2022-11-18T15:04:52.295Z,12.48
2022-11-18T15:05:52.165Z,12.45
2022-11-18T15:06:52.198Z,12.41
2022-11-18T15:07:52.221Z,12.34
2022-11-18T15:08:52.138Z,12.33
2022-11-18T15:09:52.138Z,12.27
2022-11-18T15:10:52.115Z,12.31
2022-11-18T15:11:52.110Z,12.33
2022-11-18T15:12:52.114Z,12.27
2022-11-18T15:13:52.070Z,12.21
2022-11-18T15:14:52.082Z,12.23
2022-11-18T15:15:52.076Z,12.09
2022-11-18T15:16:52.065Z,12.12
2022-11-18T15:17:54.112Z,12.12
2022-11-18T15:18:52.042Z,12.21
2022-11-18T15:19:52.003Z,12.13
2022-11-18T15:20:52.032Z,12.05
2022-11-18T15:21:51.993Z,12.02
2022-11-18T15:22:51.993Z,12.01
2022-11-18T15:23:52.005Z,12.04
2022-11-18T15:24:51.972Z,12.02
2022-11-18T15:25:51.944Z,11.94
2022-11-18T15:26:51.956Z,11.96
2022-11-18T15:27:51.917Z,11.97
2022-11-18T15:28:51.948Z,11.96
2022-11-18T15:29:51.898Z,11.90
2022-11-18T15:30:51.884Z,11.96
2022-11-18T15:31:51.869Z,11.89
2022-11-18T15:32:51.875Z,11.97
2022-11-18T15:33:51.860Z,11.97
2022-11-18T15:34:51.857Z,11.94
2022-11-18T15:35:51.839Z,12.04
2022-11-18T15:36:51.878Z,11.87
2022-11-18T15:37:51.803Z,12.01
2022-11-18T15:38:51.835Z,11.86
2022-11-18T15:39:51.825Z,11.94
2022-11-18T15:40:51.768Z,11.97
2022-11-18T15:41:51.770Z,11.87
2022-11-18T15:42:52.515Z,11.82
2022-11-18T15:43:51.734Z,11.87
2022-11-18T15:44:51.762Z,11.87
2022-11-18T15:45:51.735Z,11.85
2022-11-18T15:46:51.720Z,11.96
2022-11-18T15:47:51.692Z,11.85
2022-11-18T15:48:51.715Z,11.77
2022-11-18T15:49:51.812Z,11.85
2022-11-18T15:50:54.227Z,11.83
2022-11-18T15:51:51.820Z,11.78
2022-11-18T15:52:51.766Z,11.78
2022-11-18T15:53:51.631Z,11.70
2022-11-18T15:54:51.620Z,11.72
2022-11-18T15:55:51.651Z,11.71
2022-11-18T15:56:51.600Z,11.72
2022-11-18T15:57:51.593Z,11.64
2022-11-18T15:58:51.580Z,11.64
2022-11-18T15:59:51.553Z,11.49
2022-11-18T16:00:51.607Z,11.56
2022-11-18T16:01:54.321Z,11.50
2022-11-18T16:02:51.521Z,11.50
2022-11-18T16:03:51.517Z,11.38
2022-11-18T16:04:51.511Z,11.39
2022-11-18T16:05:51.496Z,11.44
2022-11-18T16:06:51.501Z,11.41
2022-11-18T16:07:55.014Z,11.32
2022-11-18T16:08:57.496Z,11.32
2022-11-18T16:09:52.452Z,11.27
2022-11-18T16:10:51.444Z,11.28
2022-11-18T16:11:51.455Z,11.36
2022-11-18T16:12:51.419Z,11.35
2022-11-18T16:13:51.395Z,11.36
2022-11-18T16:14:51.379Z,11.35
2022-11-18T16:15:51.389Z,11.35
2022-11-18T16:16:51.401Z,11.17
2022-11-18T16:17:51.386Z,11.25
2022-11-18T16:18:51.348Z,11.13
2022-11-18T16:19:51.331Z,11.09
2022-11-18T16:20:51.318Z,11.11
2022-11-18T16:21:51.307Z,11.17
2022-11-18T16:22:51.312Z,11.01
2022-11-18T16:23:51.296Z,11.02
2022-11-18T16:24:53.325Z,10.92
2022-11-18T16:25:51.259Z,11.06
2022-11-18T16:26:51.273Z,10.96
2022-11-18T16:27:51.252Z,10.99
2022-11-18T16:28:51.226Z,10.95
2022-11-18T16:29:51.204Z,10.98
2022-11-18T16:30:51.213Z,11.01
2022-11-18T16:31:51.210Z,10.98
2022-11-18T16:32:51.201Z,10.98
2022-11-18T16:33:51.183Z,11.01
2022-11-18T16:34:54.175Z,10.88
2022-11-18T16:35:52.156Z,10.91
2022-11-18T16:36:51.128Z,10.86
2022-11-18T16:37:51.150Z,10.88
2022-11-18T16:38:51.130Z,10.91
2022-11-18T16:39:51.095Z,10.81
2022-11-18T16:40:51.153Z,10.86
2022-11-18T16:41:51.080Z,10.83
2022-11-18T16:42:51.065Z,10.77
2022-11-18T16:43:51.059Z,10.89
2022-11-18T16:44:51.055Z,10.78
2022-11-18T16:45:51.040Z,10.74
2022-11-18T16:46:51.029Z,10.78
2022-11-18T16:47:51.018Z,10.88
2022-11-18T16:48:51.021Z,10.80
2022-11-18T16:49:50.994Z,10.68
2022-11-18T16:50:50.988Z,10.74
2022-11-18T16:51:50.956Z,10.78
2022-11-18T16:52:50.960Z,10.81
2022-11-18T16:53:50.954Z,10.76
2022-11-18T16:54:50.928Z,10.88
2022-11-18T16:55:50.917Z,10.84
2022-11-18T16:56:51.016Z,10.80
2022-11-18T16:57:50.954Z,10.74
2022-11-18T16:58:50.963Z,10.78
2022-11-18T16:59:50.884Z,10.77
2022-11-18T17:01:17.669Z,10.77
2022-11-18T17:01:51.946Z,10.77
2022-11-18T17:02:50.851Z,10.63
2022-11-18T17:03:50.839Z,10.74
2022-11-18T17:04:50.836Z,10.80
2022-11-18T17:05:50.800Z,10.68
2022-11-18T17:06:50.815Z,10.70
2022-11-18T17:07:50.846Z,10.74
2022-11-18T17:08:50.778Z,10.74
2022-11-18T17:09:50.767Z,10.70
2022-11-18T17:10:50.772Z,10.81
2022-11-18T17:11:50.727Z,10.86
2022-11-18T17:12:50.746Z,10.73
2022-11-18T17:13:54.786Z,10.80
2022-11-18T17:14:51.733Z,10.76
2022-11-18T17:15:50.703Z,10.70
2022-11-18T17:16:50.695Z,10.80
2022-11-18T17:17:50.661Z,10.77
2022-11-18T17:18:50.675Z,10.80
2022-11-18T17:19:50.669Z,10.78
2022-11-18T17:20:50.635Z,10.74
2022-11-18T17:21:50.614Z,10.88
2022-11-18T17:22:50.626Z,10.78
2022-11-18T17:23:50.599Z,10.81
2022-11-18T17:24:50.622Z,10.80
2022-11-18T17:25:50.582Z,10.81
2022-11-18T17:26:50.579Z,10.89
2022-11-18T17:27:50.573Z,10.88
2022-11-18T17:28:50.559Z,10.86
2022-11-18T17:29:50.554Z,10.83
2022-11-18T17:30:50.523Z,10.81
2022-11-18T17:31:50.519Z,10.83
2022-11-18T17:32:50.509Z,10.84
2022-11-18T17:33:50.482Z,10.88
2022-11-18T17:34:50.495Z,10.78
2022-11-18T17:35:50.450Z,10.84
2022-11-18T17:36:50.502Z,10.81
2022-11-18T17:37:50.443Z,10.88
2022-11-18T17:38:50.453Z,10.94
2022-11-18T17:39:50.455Z,10.80
2022-11-18T17:40:50.419Z,10.81
2022-11-18T17:41:50.403Z,10.94
2022-11-18T17:42:50.397Z,10.94
2022-11-18T17:43:50.364Z,10.81
2022-11-18T17:44:50.404Z,10.88
2022-11-18T17:45:50.351Z,10.94
2022-11-18T17:46:50.362Z,10.86
2022-11-18T17:47:50.323Z,10.88
2022-11-18T17:48:50.321Z,10.91
2022-11-18T17:49:50.319Z,10.91
2022-11-18T17:50:50.291Z,10.91
2022-11-18T17:51:50.289Z,10.88
2022-11-18T17:52:50.268Z,10.88
2022-11-18T17:53:50.269Z,10.96
2022-11-18T17:54:50.261Z,10.92
2022-11-18T17:55:50.232Z,10.86
2022-11-18T17:56:50.237Z,10.89
2022-11-18T17:57:50.219Z,10.92
2022-11-18T17:58:50.213Z,10.95
2022-11-18T17:59:50.212Z,10.81
2022-11-18T18:00:50.285Z,10.86
2022-11-18T18:01:54.392Z,10.74
2022-11-18T18:02:51.165Z,10.76
2022-11-18T18:03:50.135Z,10.84
2022-11-18T18:04:50.147Z,10.83
2022-11-18T18:05:50.126Z,10.80
2022-11-18T18:06:50.135Z,10.71
2022-11-18T18:07:50.149Z,10.83
2022-11-18T18:08:50.108Z,10.81
2022-11-18T18:09:50.123Z,10.76
2022-11-18T18:10:50.073Z,10.84
2022-11-18T18:11:50.058Z,10.83
2022-11-18T18:12:50.054Z,10.83
2022-11-18T18:13:50.040Z,10.80
2022-11-18T18:14:50.068Z,10.73
2022-11-18T18:15:50.014Z,10.70
2022-11-18T18:16:50.050Z,10.66
2022-11-18T18:17:49.977Z,10.63
2022-11-18T18:18:49.985Z,10.70
2022-11-18T18:19:49.980Z,10.77
2022-11-18T18:20:49.968Z,10.62
2022-11-18T18:21:49.948Z,10.60
2022-11-18T18:22:49.934Z,10.56
2022-11-18T18:23:49.912Z,10.63
2022-11-18T18:24:49.916Z,10.66
2022-11-18T18:25:49.893Z,10.76
2022-11-18T18:26:49.883Z,10.73
2022-11-18T18:27:49.898Z,10.65
2022-11-18T18:28:49.872Z,10.56
2022-11-18T18:29:49.853Z,10.63
2022-11-18T18:30:49.837Z,10.59
2022-11-18T18:31:49.841Z,10.53
2022-11-18T18:32:52.561Z,10.56
2022-11-18T18:33:49.794Z,10.65
2022-11-18T18:34:49.815Z,10.52
2022-11-18T18:35:49.865Z,10.53
2022-11-18T18:36:49.763Z,10.60
2022-11-18T18:37:49.765Z,10.58
2022-11-18T18:38:49.736Z,10.59
2022-11-18T18:39:49.756Z,10.66
2022-11-18T18:40:49.720Z,10.55
2022-11-18T18:41:49.722Z,10.47
2022-11-18T18:42:49.695Z,10.59
2022-11-18T18:43:49.703Z,10.56
2022-11-18T18:44:49.715Z,10.60
2022-11-18T18:45:49.674Z,10.59
2022-11-18T18:46:49.673Z,10.56
2022-11-18T18:47:49.651Z,10.68
2022-11-18T18:48:49.658Z,10.63
2022-11-18T18:49:49.650Z,10.58
2022-11-18T18:50:49.623Z,10.68
2022-11-18T18:51:49.608Z,10.77
2022-11-18T18:52:49.578Z,10.65
2022-11-18T18:53:49.584Z,10.71
2022-11-18T18:54:49.607Z,10.74
2022-11-18T18:55:49.546Z,10.68
2022-11-18T18:56:49.535Z,10.63
2022-11-18T18:57:49.532Z,10.76
2022-11-18T18:58:49.575Z,10.77
2022-11-18T18:59:49.517Z,10.73
2022-11-18T19:00:52.117Z,10.68
2022-11-18T19:01:49.585Z,10.78
2022-11-18T19:02:49.481Z,10.74
2022-11-18T19:03:49.473Z,10.68
2022-11-18T19:04:49.495Z,10.60
2022-11-18T19:06:21.851Z,10.59
2022-11-18T19:06:59.935Z,10.58
2022-11-18T19:07:50.511Z,10.71
2022-11-18T19:08:49.396Z,10.51
2022-11-18T19:09:49.408Z,10.68
2022-11-18T19:10:49.391Z,10.55
2022-11-18T19:11:49.514Z,10.51
2022-11-18T19:12:49.370Z,10.56
2022-11-18T19:13:49.382Z,10.62
2022-11-18T19:14:49.346Z,10.63
2022-11-18T19:15:49.435Z,10.47
2022-11-18T19:16:49.307Z,10.74
2022-11-18T19:17:49.360Z,10.65
2022-11-18T19:18:49.298Z,10.60
2022-11-18T19:19:49.307Z,10.65
2022-11-18T19:20:49.281Z,10.60
2022-11-18T19:21:49.256Z,10.66
2022-11-18T19:22:49.251Z,10.51
2022-11-18T19:23:49.232Z,10.62
2022-11-18T19:24:50.706Z,10.59
2022-11-18T19:25:49.209Z,10.55
2022-11-18T19:26:49.197Z,10.55
2022-11-18T19:27:49.197Z,10.58
2022-11-18T19:28:49.168Z,10.53
2022-11-18T19:29:49.198Z,10.55
2022-11-18T19:30:49.154Z,10.47
2022-11-18T19:31:49.156Z,10.59
2022-11-18T19:32:49.137Z,10.47
2022-11-18T19:33:49.113Z,10.52
2022-11-18T19:34:49.130Z,10.56
2022-11-18T19:35:49.090Z,10.60
2022-11-18T19:36:49.175Z,10.52
2022-11-18T19:37:49.072Z,10.52
2022-11-18T19:38:49.072Z,10.56
2022-11-18T19:39:49.107Z,10.53
2022-11-18T19:40:49.035Z,10.52
2022-11-18T19:41:49.042Z,10.51
2022-11-18T19:42:49.022Z,10.60
2022-11-18T19:43:49.002Z,10.46
2022-11-18T19:44:49.005Z,10.51
2022-11-18T19:45:48.996Z,10.55
2022-11-18T19:46:48.977Z,10.55
2022-11-18T19:47:48.968Z,10.47
2022-11-18T19:48:48.953Z,10.42
2022-11-18T19:49:48.954Z,10.43
2022-11-18T19:50:48.916Z,10.44
2022-11-18T19:51:48.922Z,10.52
2022-11-18T19:52:48.935Z,10.58
2022-11-18T19:53:48.911Z,10.56
2022-11-18T19:54:48.882Z,10.40
2022-11-18T19:55:48.884Z,10.56
2022-11-18T19:56:48.865Z,10.53
2022-11-18T19:57:48.848Z,10.52
2022-11-18T19:58:48.841Z,10.56
2022-11-18T19:59:48.851Z,10.62
2022-11-18T20:00:48.817Z,10.58
2022-11-18T20:01:48.882Z,10.51
2022-11-18T20:02:48.810Z,10.51
2022-11-18T20:03:48.790Z,10.44
2022-11-18T20:04:48.781Z,10.53
2022-11-18T20:05:48.750Z,10.53
2022-11-18T20:06:48.737Z,10.63
2022-11-18T20:07:48.738Z,10.62
2022-11-18T20:08:48.757Z,10.60
2022-11-18T20:09:48.705Z,10.51
2022-11-18T20:10:48.713Z,10.62
2022-11-18T20:11:48.709Z,10.59
2022-11-18T20:12:48.671Z,10.55
2022-11-18T20:13:48.677Z,10.55
2022-11-18T20:14:48.649Z,10.53
2022-11-18T20:15:48.656Z,10.46
2022-11-18T20:16:48.633Z,10.47
2022-11-18T20:17:48.637Z,10.44
2022-11-18T20:18:48.606Z,10.47
2022-11-18T20:19:48.598Z,10.44
2022-11-18T20:20:48.612Z,10.44
2022-11-18T20:21:48.592Z,10.40
2022-11-18T20:22:48.650Z,10.37
2022-11-18T20:23:48.558Z,10.44
2022-11-18T20:24:48.552Z,10.42
2022-11-18T20:25:48.572Z,10.43
2022-11-18T20:26:48.522Z,10.44
2022-11-18T20:27:48.500Z,10.28
2022-11-18T20:28:51.683Z,10.40
2022-11-18T20:29:49.477Z,10.28
2022-11-18T20:30:48.488Z,10.25
2022-11-18T20:31:48.474Z,10.34
2022-11-18T20:32:48.487Z,10.28
2022-11-18T20:33:48.446Z,10.28
2022-11-18T20:34:48.414Z,10.33